createdAt,value
2022-10-01T00:02:09.084Z,12.93
2022-10-01T00:04:37.778Z,14.83
2022-10-01T00:07:09.821Z,12.30
2022-10-01T00:09:39.660Z,11.73
2022-10-01T00:12:08.208Z,14.40
2022-10-01T00:14:39.097Z,12.53
2022-10-01T00:17:07.524Z,12.17
2022-10-01T00:19:36.313Z,13.00
2022-10-01T00:22:04.577Z,12.43
2022-10-01T00:24:34.868Z,11.93
2022-10-01T00:27:04.488Z,12.83
2022-10-01T00:29:32.833Z,11.97
2022-10-01T00:32:01.927Z,13.23
2022-10-01T00:34:30.219Z,11.80
2022-10-01T00:36:58.509Z,12.07
2022-10-01T00:39:26.752Z,15.30
2022-10-01T00:41:55.016Z,11.93
2022-10-01T00:44:35.512Z,12.03
2022-10-01T00:47:07.148Z,14.47
2022-10-01T00:49:36.307Z,13.23
2022-10-01T00:52:05.953Z,11.70
2022-10-01T00:54:38.918Z,12.43
2022-10-01T00:57:08.572Z,12.77
2022-10-01T00:59:38.377Z,12.37
2022-10-01T01:02:06.740Z,15.13
2022-10-01T01:04:35.052Z,15.43
2022-10-01T01:07:05.408Z,16.87
2022-10-01T01:09:35.144Z,15.93
2022-10-01T01:12:08.374Z,15.93
2022-10-01T01:14:41.090Z,18.00
2022-10-01T01:17:12.492Z,16.33
2022-10-01T01:19:50.096Z,19.37
2022-10-01T01:22:20.260Z,17.73
2022-10-01T01:24:55.827Z,19.87
2022-10-01T01:27:35.642Z,19.00
2022-10-01T01:30:08.291Z,18.63
2022-10-01T01:32:42.787Z,18.83
2022-10-01T01:35:12.067Z,21.07
2022-10-01T01:37:42.111Z,19.67
2022-10-01T01:40:12.526Z,21.40
2022-10-01T01:42:43.360Z,22.23
2022-10-01T01:45:16.087Z,21.77
2022-10-01T01:47:45.842Z,21.60
2022-10-01T01:50:16.016Z,21.97
2022-10-01T01:52:44.377Z,24.10
2022-10-01T01:55:19.142Z,24.60
2022-10-01T01:57:49.754Z,24.67
2022-10-01T02:00:19.397Z,25.33
2022-10-01T02:02:50.739Z,25.37
2022-10-01T02:05:20.786Z,24.60
2022-10-01T02:08:07.908Z,24.53
2022-10-01T02:10:42.219Z,24.53
2022-10-01T02:13:17.519Z,25.87
2022-10-01T02:15:59.655Z,24.20
2022-10-01T02:18:32.808Z,27.93
2022-10-01T02:21:05.932Z,25.47
2022-10-01T02:23:36.481Z,29.40
2022-10-01T02:26:15.095Z,28.73
2022-10-01T02:28:48.872Z,26.67
2022-10-01T02:31:19.451Z,27.07
2022-10-01T02:33:48.242Z,28.90
2022-10-01T02:36:17.826Z,29.03
2022-10-01T02:38:50.085Z,32.77
2022-10-01T02:41:21.285Z,32.43
2022-10-01T02:43:53.247Z,31.93
2022-10-01T02:46:28.414Z,31.40
2022-10-01T02:48:57.243Z,30.80
2022-10-01T02:51:30.250Z,33.93
2022-10-01T02:54:00.920Z,34.63
2022-10-01T02:56:48.949Z,36.70
2022-10-01T02:59:17.766Z,32.70
2022-10-01T03:01:50.857Z,36.07
2022-10-01T03:04:22.191Z,32.83
2022-10-01T03:06:50.438Z,41.37
2022-10-01T03:09:19.914Z,34.30
2022-10-01T03:11:50.315Z,36.73
2022-10-01T03:14:19.023Z,35.27
2022-10-01T03:16:50.665Z,41.37
2022-10-01T03:19:20.791Z,36.07
2022-10-01T03:21:49.296Z,34.03
2022-10-01T03:24:17.936Z,31.47
2022-10-01T03:26:46.301Z,34.03
2022-10-01T03:29:15.111Z,29.13
2022-10-01T03:31:43.332Z,29.53
2022-10-01T03:34:13.589Z,32.57
2022-10-01T03:36:47.156Z,32.13
2022-10-01T03:39:15.580Z,32.70
2022-10-01T03:41:44.898Z,33.77
2022-10-01T03:44:13.133Z,31.63
2022-10-01T03:46:41.946Z,32.70
2022-10-01T03:49:11.487Z,33.40
2022-10-01T03:51:42.370Z,32.73
2022-10-01T03:54:11.137Z,36.17
2022-10-01T03:56:43.038Z,35.83
2022-10-01T03:59:12.009Z,38.73
2022-10-01T04:01:40.659Z,38.83
2022-10-01T04:04:11.271Z,39.80
2022-10-01T04:06:40.890Z,36.57
2022-10-01T04:09:09.716Z,39.43
2022-10-01T04:11:40.038Z,32.90
2022-10-01T04:14:09.013Z,33.27
2022-10-01T04:16:37.314Z,38.83
2022-10-01T04:19:05.804Z,35.00
2022-10-01T04:21:36.961Z,34.30
2022-10-01T04:24:07.246Z,40.57
2022-10-01T04:26:35.506Z,40.50
2022-10-01T04:29:03.767Z,35.50
2022-10-01T04:31:35.340Z,34.37
2022-10-01T04:34:04.250Z,32.57
2022-10-01T04:36:35.927Z,31.67
2022-10-01T04:39:04.748Z,28.30
2022-10-01T04:41:34.614Z,31.13
2022-10-01T04:44:04.308Z,33.37
2022-10-01T04:46:32.610Z,30.20
2022-10-01T04:49:03.040Z,28.93
2022-10-01T04:51:31.586Z,28.67
2022-10-01T04:53:59.995Z,30.57
2022-10-01T04:56:28.228Z,24.73
2022-10-01T04:59:05.041Z,24.23
2022-10-01T05:01:33.679Z,24.00
2022-10-01T05:04:02.462Z,24.23
2022-10-01T05:06:30.742Z,22.30
2022-10-01T05:08:59.070Z,23.00
2022-10-01T05:11:27.767Z,22.70
2022-10-01T05:13:56.083Z,20.70
2022-10-01T05:16:25.858Z,20.50
2022-10-01T05:18:54.760Z,23.43
2022-10-01T05:21:23.200Z,20.77
2022-10-01T05:23:56.358Z,22.17
2022-10-01T05:26:25.238Z,19.97
2022-10-01T05:28:54.008Z,18.77
2022-10-01T05:31:23.831Z,19.33
2022-10-01T05:33:53.498Z,18.97
2022-10-01T05:36:21.738Z,18.40
2022-10-01T05:38:52.394Z,18.50
2022-10-01T05:41:20.672Z,17.37
2022-10-01T05:43:53.886Z,16.83
2022-10-01T05:46:22.313Z,15.97
2022-10-01T05:48:55.119Z,14.90
2022-10-01T05:51:23.494Z,12.57
2022-10-01T05:53:55.522Z,11.13
2022-10-01T05:56:25.363Z,10.80
2022-10-01T05:58:54.509Z,11.20
2022-10-01T06:01:22.760Z,10.53
2022-10-01T06:03:52.318Z,11.00
2022-10-01T06:06:23.955Z,12.67
2022-10-01T06:08:52.599Z,11.53
2022-10-01T06:11:27.116Z,11.00
2022-10-01T06:13:55.455Z,10.97
2022-10-01T06:16:23.926Z,11.37
2022-10-01T06:18:57.549Z,10.17
2022-10-01T06:21:30.385Z,10.80
2022-10-01T06:24:01.055Z,10.23
2022-10-01T06:26:29.297Z,10.60
2022-10-01T06:28:57.555Z,10.17
2022-10-01T06:31:25.872Z,9.73
2022-10-01T06:33:57.079Z,10.27
2022-10-01T06:36:26.742Z,9.33
2022-10-01T06:38:55.041Z,9.60
2022-10-01T06:41:24.380Z,9.63
2022-10-01T06:43:52.846Z,9.90
2022-10-01T06:46:21.286Z,11.50
2022-10-01T06:48:50.289Z,9.43
2022-10-01T06:51:39.091Z,8.27
2022-10-01T06:54:09.175Z,8.23
2022-10-01T06:56:37.482Z,8.93
2022-10-01T06:59:05.925Z,8.27
2022-10-01T07:01:35.643Z,7.70
2022-10-01T07:04:06.462Z,7.73
2022-10-01T07:06:34.712Z,8.53
2022-10-01T07:09:02.945Z,8.27
2022-10-01T07:11:33.974Z,8.50
2022-10-01T07:14:04.561Z,8.10
2022-10-01T07:16:34.207Z,8.43
2022-10-01T07:19:02.520Z,8.00
2022-10-01T07:21:31.006Z,8.73
2022-10-01T07:23:59.278Z,7.93
2022-10-01T07:26:27.548Z,7.70
2022-10-01T07:28:57.463Z,8.13
2022-10-01T07:31:25.757Z,8.50
2022-10-01T07:33:59.022Z,9.37
2022-10-01T07:36:27.364Z,7.83
2022-10-01T07:38:59.490Z,7.83
2022-10-01T07:41:27.820Z,7.00
2022-10-01T07:43:58.374Z,8.70
2022-10-01T07:46:28.043Z,7.53
2022-10-01T07:48:58.865Z,7.60
2022-10-01T07:51:29.375Z,7.73
2022-10-01T07:53:59.256Z,7.87
2022-10-01T07:56:27.994Z,7.10
2022-10-01T07:58:58.721Z,7.70
2022-10-01T08:01:27.331Z,6.80
2022-10-01T08:03:56.125Z,7.83
2022-10-01T08:06:25.855Z,6.33
2022-10-01T08:08:54.146Z,7.77
2022-10-01T08:11:22.477Z,7.13
2022-10-01T08:13:50.706Z,5.80
2022-10-01T08:16:20.535Z,5.83
2022-10-01T08:18:50.217Z,5.50
2022-10-01T08:21:18.512Z,5.10
2022-10-01T08:23:46.773Z,5.97
2022-10-01T08:26:15.834Z,4.00
2022-10-01T08:28:44.582Z,4.10
2022-10-01T08:31:12.849Z,3.97
2022-10-01T08:33:42.723Z,3.50
2022-10-01T08:36:11.338Z,4.47
2022-10-01T08:38:40.565Z,3.60
2022-10-01T08:41:14.811Z,5.53
2022-10-01T08:43:43.736Z,3.10
2022-10-01T08:46:15.261Z,3.30
2022-10-01T08:48:56.812Z,3.67
2022-10-01T08:51:27.939Z,4.37
2022-10-01T08:53:57.624Z,3.10
2022-10-01T08:56:29.622Z,2.13
2022-10-01T08:58:59.551Z,3.33
2022-10-01T09:01:28.787Z,3.37
2022-10-01T09:03:58.768Z,4.20
2022-10-01T09:06:28.231Z,3.53
2022-10-01T09:09:16.242Z,5.50
2022-10-01T09:11:50.141Z,3.87
2022-10-01T09:14:24.940Z,4.70
2022-10-01T09:16:56.103Z,5.03
2022-10-01T09:19:36.415Z,6.47
2022-10-01T09:22:13.669Z,7.37
2022-10-01T09:24:45.022Z,5.80
2022-10-01T09:27:15.625Z,5.57
2022-10-01T09:29:47.249Z,4.83
2022-10-01T09:32:18.015Z,3.20
2022-10-01T09:34:50.800Z,2.43
2022-10-01T09:37:25.087Z,2.70
2022-10-01T09:40:01.934Z,4.20
2022-10-01T09:42:34.058Z,4.40
2022-10-01T09:45:02.396Z,3.07
2022-10-01T09:47:30.639Z,3.07
2022-10-01T09:50:01.338Z,2.10
2022-10-01T09:52:34.220Z,2.97
2022-10-01T09:55:04.595Z,3.50
2022-10-01T09:57:35.184Z,2.47
2022-10-01T10:00:07.718Z,2.20
2022-10-01T10:02:48.185Z,2.57
2022-10-01T10:05:19.185Z,5.00
2022-10-01T10:07:49.380Z,2.60
2022-10-01T10:10:25.683Z,2.23
2022-10-01T10:12:57.353Z,2.90
2022-10-01T10:15:26.453Z,2.97
2022-10-01T10:17:56.324Z,4.33
2022-10-01T10:20:40.836Z,3.83
2022-10-01T10:23:13.093Z,3.67
2022-10-01T10:25:41.779Z,3.23
2022-10-01T10:28:21.006Z,2.00
2022-10-01T10:30:50.487Z,4.00
2022-10-01T10:33:21.222Z,1.70
2022-10-01T10:36:04.289Z,1.93
2022-10-01T10:38:34.658Z,2.67
2022-10-01T10:41:03.827Z,2.07
2022-10-01T10:43:39.281Z,2.93
2022-10-01T10:46:08.377Z,4.87
2022-10-01T10:48:40.166Z,2.80
2022-10-01T10:51:10.473Z,3.37
2022-10-01T10:53:44.622Z,3.90
2022-10-01T10:56:22.002Z,3.53
2022-10-01T10:58:51.144Z,2.80
2022-10-01T11:01:26.741Z,2.97
2022-10-01T11:03:57.756Z,3.80
2022-10-01T11:06:27.584Z,4.10
2022-10-01T11:09:08.966Z,2.80
2022-10-01T11:11:50.322Z,3.80
2022-10-01T11:14:42.870Z,3.67
2022-10-01T11:17:36.942Z,4.90
2022-10-01T11:20:20.848Z,4.27
2022-10-01T11:22:59.607Z,4.10
2022-10-01T11:25:41.785Z,3.60
2022-10-01T11:28:28.501Z,3.17
2022-10-01T11:31:06.535Z,5.03
2022-10-01T11:33:47.726Z,6.87
2022-10-01T11:36:25.321Z,3.10
2022-10-01T11:39:01.295Z,4.67
2022-10-01T11:41:35.957Z,4.30
2022-10-01T11:44:08.803Z,7.97
2022-10-01T11:46:45.828Z,5.30
2022-10-01T11:49:47.907Z,7.53
2022-10-01T11:52:23.557Z,9.63
2022-10-01T11:55:21.671Z,4.80
2022-10-01T11:58:11.818Z,4.67
2022-10-01T12:00:42.191Z,7.20
2022-10-01T12:03:19.639Z,5.23
2022-10-01T12:05:53.861Z,4.30
2022-10-01T12:08:25.641Z,4.03
2022-10-01T12:11:02.074Z,3.43
2022-10-01T12:13:34.171Z,2.87
2022-10-01T12:16:09.624Z,3.87
2022-10-01T12:18:50.477Z,4.47
2022-10-01T12:21:24.649Z,5.87
2022-10-01T12:24:00.628Z,5.07
2022-10-01T12:26:39.408Z,4.33
2022-10-01T12:29:16.265Z,4.57
2022-10-01T12:31:52.393Z,4.50
2022-10-01T12:34:31.477Z,6.27
2022-10-01T12:37:12.702Z,4.13
2022-10-01T12:39:52.994Z,6.13
2022-10-01T12:42:42.928Z,4.60
2022-10-01T12:45:20.573Z,6.77
2022-10-01T12:47:53.703Z,3.33
2022-10-01T12:50:28.908Z,3.37
2022-10-01T12:53:20.503Z,3.23
2022-10-01T12:55:58.015Z,2.90
2022-10-01T12:58:56.175Z,3.17
2022-10-01T13:01:39.103Z,4.77
2022-10-01T13:04:49.771Z,4.60
2022-10-01T13:07:35.381Z,3.23
2022-10-01T13:10:15.809Z,3.27
2022-10-01T13:13:01.658Z,4.30
2022-10-01T13:15:40.488Z,6.53
2022-10-01T13:18:16.758Z,7.87
2022-10-01T13:20:54.107Z,6.27
2022-10-01T13:23:31.133Z,3.27
2022-10-01T13:26:06.357Z,3.30
2022-10-01T13:28:51.515Z,3.00
2022-10-01T13:31:21.005Z,3.30
2022-10-01T13:33:59.301Z,2.60
2022-10-01T13:36:32.073Z,4.47
2022-10-01T13:39:02.987Z,3.10
2022-10-01T13:41:33.262Z,3.50
2022-10-01T13:44:24.499Z,4.20
2022-10-01T13:46:57.399Z,4.73
2022-10-01T13:49:28.222Z,3.37
2022-10-01T13:51:56.958Z,4.60
2022-10-01T13:54:37.038Z,4.93
2022-10-01T13:57:30.831Z,3.03
2022-10-01T14:00:00.444Z,4.07
2022-10-01T14:02:44.884Z,4.17
2022-10-01T14:05:29.937Z,5.20
2022-10-01T14:08:11.564Z,4.93
2022-10-01T14:11:03.677Z,2.73
2022-10-01T14:13:50.036Z,4.47
2022-10-01T14:16:20.944Z,2.67
2022-10-01T14:18:51.704Z,2.67
2022-10-01T14:21:32.117Z,2.00
2022-10-01T14:24:07.271Z,1.90
2022-10-01T14:26:42.683Z,2.73
2022-10-01T14:29:23.972Z,1.77
2022-10-01T14:32:00.331Z,2.00
2022-10-01T14:34:43.347Z,3.77
2022-10-01T14:37:17.455Z,3.03
2022-10-01T14:39:46.306Z,1.93
2022-10-01T14:42:17.482Z,3.50
2022-10-01T14:44:48.004Z,5.37
2022-10-01T14:47:21.370Z,4.03
2022-10-01T14:49:51.825Z,5.67
2022-10-01T14:52:25.534Z,28.73
2022-10-01T14:55:00.463Z,82.03
2022-10-01T14:57:34.923Z,13.90
2022-10-01T15:00:08.037Z,11.10
2022-10-01T15:02:45.534Z,2.47
2022-10-01T15:05:23.876Z,2.23
2022-10-01T15:07:53.843Z,5.33
2022-10-01T15:10:26.825Z,8.90
2022-10-01T15:12:56.757Z,1.80
2022-10-01T15:15:29.604Z,1.97
2022-10-01T15:17:57.832Z,2.40
2022-10-01T15:20:28.677Z,2.00
2022-10-01T15:23:01.049Z,3.07
2022-10-01T15:25:33.856Z,2.33
2022-10-01T15:28:02.943Z,2.97
2022-10-01T15:30:36.284Z,2.03
2022-10-01T15:33:11.872Z,1.70
2022-10-01T15:35:41.562Z,3.40
2022-10-01T15:38:18.342Z,2.07
2022-10-01T15:41:05.004Z,1.67
2022-10-01T15:43:42.635Z,2.33
2022-10-01T15:46:32.638Z,1.93
2022-10-01T15:49:23.239Z,1.63
2022-10-01T15:52:30.461Z,2.40
2022-10-01T15:55:00.574Z,2.60
2022-10-01T15:57:31.626Z,2.43
2022-10-01T16:00:03.204Z,4.23
2022-10-01T16:02:32.947Z,3.57
2022-10-01T16:05:06.737Z,2.80
2022-10-01T16:07:36.263Z,6.60
2022-10-01T16:10:16.891Z,3.63
2022-10-01T16:12:45.449Z,2.90
2022-10-01T16:15:27.047Z,2.57
2022-10-01T16:17:58.691Z,4.30
2022-10-01T16:20:39.834Z,3.57
2022-10-01T16:23:35.104Z,3.00
2022-10-01T16:26:05.143Z,2.90
2022-10-01T16:28:36.695Z,2.30
2022-10-01T16:31:07.203Z,4.23
2022-10-01T16:33:35.310Z,2.37
2022-10-01T16:36:11.283Z,5.77
2022-10-01T16:38:43.428Z,3.07
2022-10-01T16:41:12.311Z,2.20
2022-10-01T16:43:40.319Z,3.00
2022-10-01T16:46:13.400Z,2.40
2022-10-01T16:48:41.310Z,3.20
2022-10-01T16:51:12.250Z,3.50
2022-10-01T16:53:42.825Z,3.83
2022-10-01T16:56:11.677Z,3.30
2022-10-01T16:58:42.131Z,3.87
2022-10-01T17:01:15.842Z,2.57
2022-10-01T17:03:43.976Z,2.40
2022-10-01T17:06:11.957Z,4.20
2022-10-01T17:08:41.869Z,121.37
2022-10-01T17:11:13.210Z,3.93
2022-10-01T17:13:42.631Z,2.30
2022-10-01T17:16:13.801Z,2.47
2022-10-01T17:18:43.901Z,2.97
2022-10-01T17:21:12.021Z,4.53
2022-10-01T17:23:41.666Z,1.70
2022-10-01T17:26:12.757Z,2.20
2022-10-01T17:28:43.693Z,1.70
2022-10-01T17:31:16.995Z,1.50
2022-10-01T17:33:46.666Z,2.67
2022-10-01T17:36:15.151Z,1.63
2022-10-01T17:38:45.676Z,2.10
2022-10-01T17:41:14.225Z,2.90
2022-10-01T17:43:42.185Z,11.73
2022-10-01T17:46:10.806Z,4.50
2022-10-01T17:48:39.068Z,1.97
2022-10-01T17:51:09.691Z,1.80
2022-10-01T17:53:42.448Z,1.70
2022-10-01T17:56:15.676Z,1.83
2022-10-01T17:58:45.837Z,1.80
2022-10-01T18:01:16.069Z,1.60
2022-10-01T18:03:44.387Z,2.00
2022-10-01T18:06:15.399Z,1.67
2022-10-01T18:08:58.918Z,2.80
2022-10-01T18:11:30.676Z,3.77
2022-10-01T18:13:58.796Z,1.87
2022-10-01T18:16:27.665Z,1.80
2022-10-01T18:21:44.922Z,1.63
2022-10-01T18:24:16.347Z,1.30
2022-10-01T18:26:46.750Z,2.43
2022-10-01T18:29:19.273Z,1.57
2022-10-01T18:31:54.126Z,1.40
2022-10-01T18:34:32.510Z,1.77
2022-10-01T18:37:04.989Z,2.00
2022-10-01T18:39:39.487Z,1.30
2022-10-01T18:42:19.889Z,1.40
2022-10-01T18:44:53.653Z,1.33
2022-10-01T18:47:28.833Z,1.60
2022-10-01T18:50:11.400Z,1.83
2022-10-01T18:52:48.700Z,6.03
2022-10-01T18:55:40.340Z,2.07
2022-10-01T18:58:31.453Z,2.20
2022-10-01T19:01:04.868Z,2.50
2022-10-01T19:04:00.525Z,1.43
2022-10-01T19:06:49.213Z,2.57
2022-10-01T19:09:29.676Z,1.47
2022-10-01T19:12:08.916Z,1.60
2022-10-01T19:14:57.953Z,1.50
2022-10-01T19:17:46.852Z,1.20
2022-10-01T19:20:25.430Z,1.20
2022-10-01T19:23:07.402Z,1.30
2022-10-01T19:25:40.177Z,1.50
2022-10-01T19:28:19.269Z,1.10
2022-10-01T19:31:03.399Z,1.90
2022-10-01T19:33:35.919Z,1.30
2022-10-01T19:36:08.173Z,2.03
2022-10-01T19:38:39.879Z,1.10
2022-10-01T19:41:20.197Z,1.20
2022-10-01T19:43:54.658Z,1.30
2022-10-01T19:46:27.719Z,1.23
2022-10-01T19:49:01.719Z,3.33
2022-10-01T19:51:34.483Z,1.30
2022-10-01T19:54:03.675Z,1.13
2022-10-01T19:56:34.287Z,1.17
2022-10-01T19:59:05.678Z,1.57
2022-10-01T20:01:39.348Z,1.30
2022-10-01T20:04:18.521Z,2.80
2022-10-01T20:06:50.036Z,1.40
2022-10-01T20:09:25.046Z,1.20
2022-10-01T20:12:05.508Z,1.20
2022-10-01T20:15:03.999Z,1.70
2022-10-01T20:17:40.183Z,1.30
2022-10-01T20:20:16.188Z,1.20
2022-10-01T20:22:57.814Z,1.40
2022-10-01T20:25:32.093Z,2.97
2022-10-01T20:28:14.030Z,1.30
2022-10-01T20:30:53.986Z,2.47
2022-10-01T20:33:31.490Z,1.83
2022-10-01T20:36:08.208Z,1.90
2022-10-01T20:38:41.192Z,1.53
2022-10-01T20:41:15.126Z,1.37
2022-10-01T20:43:49.392Z,1.63
2022-10-01T20:46:27.014Z,3.13
2022-10-01T20:49:02.955Z,1.70
2022-10-01T20:51:37.058Z,1.40
2022-10-01T20:54:10.436Z,1.47
2022-10-01T20:56:42.779Z,1.20
2022-10-01T20:59:19.956Z,1.77
2022-10-01T21:01:59.235Z,1.17
2022-10-01T21:04:34.245Z,1.90
2022-10-01T21:07:17.573Z,1.20
2022-10-01T21:09:51.751Z,1.10
2022-10-01T21:12:25.118Z,3.80
2022-10-01T21:14:55.390Z,2.47
2022-10-01T21:17:41.639Z,1.30
2022-10-01T21:20:29.935Z,2.63
2022-10-01T21:23:09.951Z,1.77
2022-10-01T21:25:51.871Z,2.03
2022-10-01T21:28:35.182Z,1.53
2022-10-01T21:31:13.933Z,1.60
2022-10-01T21:33:52.180Z,1.00
2022-10-01T21:36:28.319Z,2.00
2022-10-01T21:39:06.643Z,1.27
2022-10-01T21:41:58.682Z,1.80
2022-10-01T21:44:56.363Z,1.43
2022-10-01T21:47:33.313Z,2.70
2022-10-01T21:50:11.992Z,1.93
2022-10-01T21:52:50.412Z,2.40
2022-10-01T21:55:42.937Z,1.47
2022-10-01T21:58:29.595Z,1.80
2022-10-01T22:01:02.895Z,2.27
2022-10-01T22:03:43.192Z,2.00
2022-10-01T22:06:17.573Z,1.87
2022-10-01T22:08:56.140Z,1.37
2022-10-01T22:11:28.774Z,2.20
2022-10-01T22:14:00.295Z,2.70
2022-10-01T22:16:31.745Z,1.03
2022-10-01T22:19:05.279Z,1.20
2022-10-01T22:21:40.600Z,2.07
2022-10-01T22:24:16.936Z,2.83
2022-10-01T22:26:52.813Z,1.40
2022-10-01T22:29:24.700Z,1.60
2022-10-01T22:31:56.975Z,2.03
2022-10-01T22:34:31.131Z,1.93
2022-10-01T22:37:04.317Z,1.10
2022-10-01T22:39:37.377Z,3.07
2022-10-01T22:42:10.331Z,2.03
2022-10-01T22:44:38.621Z,1.00
2022-10-01T22:47:29.027Z,2.17
2022-10-01T22:50:09.105Z,0.77
2022-10-01T22:52:49.488Z,2.13
2022-10-01T22:55:29.883Z,3.70
2022-10-01T22:58:23.797Z,1.37
2022-10-01T23:01:01.661Z,2.73
2022-10-01T23:03:41.066Z,3.37
2022-10-01T23:06:16.373Z,1.83
2022-10-01T23:08:50.022Z,1.30
2022-10-01T23:11:31.470Z,2.97
2022-10-01T23:14:12.705Z,1.90
2022-10-01T23:16:49.096Z,1.37
2022-10-01T23:19:36.659Z,1.77
2022-10-01T23:22:16.472Z,4.03
2022-10-01T23:25:05.180Z,2.67
2022-10-01T23:27:45.377Z,1.67
2022-10-01T23:30:16.402Z,1.33
2022-10-01T23:33:16.259Z,2.97
2022-10-01T23:35:59.006Z,3.40
2022-10-01T23:39:06.155Z,1.97
2022-10-01T23:41:42.368Z,1.93
2022-10-01T23:44:18.851Z,3.07
2022-10-01T23:46:49.945Z,2.50
2022-10-01T23:49:21.152Z,1.60
2022-10-01T23:51:57.372Z,2.53
2022-10-01T23:54:31.073Z,3.17
2022-10-01T23:57:04.864Z,1.67
2022-10-01T23:59:40.031Z,1.50
